Terminal Aerodrome Forecast
Issued by NWS Grand Forks, ND

Home | Current Version | Previous Version | Text Only | Print | Product List | Glossary Off
Versions: 1 2 3 4 5 6 7 8 9 10 11 12 13 14 15 16 17 18 19 20

000
FTUS43 KFGF 241700
TAFFAR
TAF
KFAR 241720Z 2418/2518 17014G21KT P6SM SCT025
      TEMPO 2418/2419 BKN015
     FM241900 20016G23KT P6SM SCT050
     FM250100 22012KT P6SM SCT120
     FM251500 26015G22KT P6SM BKN020=

USA.gov is the U.S. government's official web portal to all federal, state and local government web resources and services.